Terminal Aerodrome Forecast
Issued by NWS

Home | Current Version | Previous Version | Graphics & Text | Print | Product List | Glossary On
Versions: 1 2 3 4 5 6 7 8 9 10 11 12 13 14 15 16 17
735
FTUS43 KMPX 231739
TAFAXN
TAF
KAXN 231739Z 2318/2418 03010KT P6SM OVC015
     FM240000 04013KT P6SM SCT015 OVC050
     FM240600 02016G26KT P6SM OVC070=

USA.gov is the U.S. government's official web portal to all federal, state and local government web resources and services.